map of SFJ home
SFJ - Airport
Location
City:  Kangerlussuaq, Qeqqata, Greenland
Near (Alt.):Sondre Strømfjord, Sondrestrom
Name:Kangerlussuaq Airport
ICAO:BGSF
IATA:SFJ

Details
Type:Airport (Aerodrome, Airfield)
Latitude:67°01'01"N (67.016969)
Longitude:50°41'22"W (-50.689324)
Elevation:165 ft (50 m)
Variation:28.35°W (WMM2015v2 magnetic declination)
0.45° annual change
Runways:1
Longest:9219 × 197 ft (2810 × 60 m), paved

Time
Time Zone:UTC-3 (DST-2)
Local Time:

Weather
METAR:BGSF 041350Z AUTO 06008KT 9999NDV NCD M24/M27 Q1007

Related Locations
Nearby:
Farthest:YWKS: 11948 mi / 19229 km
Wilkins Runway (Casey), Upper Peterson Glacier, AQ

Find:

   beyond  
but within

Other Information
Maps:
NOTAMs:
Links:
Sources:

  
  • flag of Greenland
  

Sectional Chart

Flight Planning
at skyvector.com

Satellite Image

Google Maps Satellite view

 

Copyright © 2004-2019 Karl L. Swartz. All rights reserved.
The Great Circle Mapper name and logo are trademarks of the Great Circle Mapper.
All other trademarks mentioned herein belong to their respective owners.
Please see credits for attibutions and further copyright information.

  Follow gcmap on Facebook Follow gcmap on Twitter GCmap on LinkedIn

hCard Microformat

Geo Microformat